createdAt,value
2023-01-11T00:00:12.675Z,69.48
2023-01-11T00:02:14.771Z,69.93
2023-01-11T00:04:17.074Z,69.33
2023-01-11T00:06:19.225Z,69.05
2023-01-11T00:08:22.366Z,68.90
2023-01-11T00:10:24.612Z,68.99
2023-01-11T00:12:26.722Z,68.91
2023-01-11T00:14:28.843Z,69.23
2023-01-11T00:16:30.843Z,69.12
2023-01-11T00:18:32.808Z,69.22
2023-01-11T00:20:35.237Z,69.08
2023-01-11T00:22:37.941Z,68.95
2023-01-11T00:24:39.836Z,69.13
2023-01-11T00:26:41.915Z,68.63
2023-01-11T00:28:44.006Z,68.78
2023-01-11T00:30:49.272Z,68.02
2023-01-11T00:32:57.767Z,68.00
2023-01-11T00:34:59.833Z,67.94
2023-01-11T00:37:02.115Z,67.92
2023-01-11T00:39:04.481Z,67.39
2023-01-11T00:41:17.393Z,66.97
2023-01-11T00:43:28.324Z,67.39
2023-01-11T00:45:40.472Z,67.61
2023-01-11T00:47:52.345Z,67.30
2023-01-11T00:49:54.409Z,67.05
2023-01-11T00:51:56.634Z,67.43
2023-01-11T00:53:58.730Z,67.20
2023-01-11T00:56:00.815Z,66.68
2023-01-11T00:58:03.217Z,66.50
2023-01-11T01:00:06.256Z,66.42
2023-01-11T01:02:09.898Z,66.23
2023-01-11T01:04:11.945Z,66.38
2023-01-11T01:06:13.932Z,66.74
2023-01-11T01:08:16.332Z,66.90
2023-01-11T01:10:18.619Z,66.37
2023-01-11T01:12:30.305Z,66.89
2023-01-11T01:14:33.702Z,66.27
2023-01-11T01:16:37.136Z,66.46
2023-01-11T01:18:39.194Z,67.19
2023-01-11T01:20:41.598Z,67.16
2023-01-11T01:22:43.533Z,67.04
2023-01-11T01:24:45.517Z,67.28
2023-01-11T01:26:47.527Z,67.12
2023-01-11T01:28:50.721Z,66.75
2023-01-11T01:30:52.907Z,67.16
2023-01-11T01:32:55.078Z,67.07
2023-01-11T01:34:57.211Z,67.01
2023-01-11T01:36:59.243Z,67.19
2023-01-11T01:39:01.771Z,66.93
2023-01-11T01:41:04.999Z,66.34
2023-01-11T01:43:11.765Z,66.47
2023-01-11T01:45:24.326Z,67.15
2023-01-11T01:47:35.044Z,66.69
2023-01-11T01:49:37.661Z,67.59
2023-01-11T01:51:40.109Z,67.12
2023-01-11T01:53:47.037Z,66.67
2023-01-11T01:55:53.646Z,66.78
2023-01-11T01:57:58.082Z,67.34
2023-01-11T02:00:05.475Z,67.15
2023-01-11T02:02:07.525Z,67.21
2023-01-11T02:04:14.547Z,67.38
2023-01-11T02:06:16.964Z,67.04
2023-01-11T02:08:30.341Z,67.08
2023-01-11T02:10:33.142Z,67.29
2023-01-11T02:12:41.456Z,67.16
2023-01-11T02:14:45.156Z,67.42
2023-01-11T02:16:47.126Z,67.82
2023-01-11T02:18:49.112Z,68.02
2023-01-11T02:21:10.562Z,67.84
2023-01-11T02:23:23.009Z,67.23
2023-01-11T02:25:26.591Z,67.61
2023-01-11T02:27:34.943Z,67.27
2023-01-11T02:29:44.011Z,67.27
2023-01-11T02:32:05.604Z,67.66
2023-01-11T02:34:19.876Z,67.80
2023-01-11T02:36:30.792Z,67.49
2023-01-11T02:38:41.947Z,67.39
2023-01-11T02:40:55.377Z,66.76
2023-01-11T02:43:16.353Z,66.76
2023-01-11T02:45:33.465Z,67.65
2023-01-11T02:47:40.496Z,66.88
2023-01-11T02:49:52.796Z,67.19
2023-01-11T02:52:01.126Z,67.13
2023-01-11T02:54:09.294Z,67.37
2023-01-11T02:56:16.966Z,67.42
2023-01-11T02:58:22.118Z,67.95
2023-01-11T03:00:25.608Z,68.28
2023-01-11T03:02:27.899Z,68.00
2023-01-11T03:04:36.475Z,68.19
2023-01-11T03:06:38.479Z,68.09
2023-01-11T03:08:51.441Z,67.55
2023-01-11T03:10:56.841Z,68.53
2023-01-11T03:13:09.052Z,68.94
2023-01-11T03:15:11.221Z,68.61
2023-01-11T03:17:25.800Z,68.52
2023-01-11T03:19:29.297Z,68.89
2023-01-11T03:21:43.210Z,68.52
2023-01-11T03:23:55.444Z,68.57
2023-01-11T03:26:16.508Z,68.77
2023-01-11T03:28:37.411Z,68.34
2023-01-11T03:30:44.597Z,68.20
2023-01-11T03:32:55.901Z,68.50
2023-01-11T03:35:13.802Z,68.55
2023-01-11T03:37:25.743Z,68.49
2023-01-11T03:39:37.921Z,69.01
2023-01-11T03:41:42.157Z,68.63
2023-01-11T03:43:47.013Z,69.12
2023-01-11T03:45:54.146Z,68.92
2023-01-11T03:48:00.008Z,69.60
2023-01-11T03:50:06.964Z,68.67
2023-01-11T03:52:12.587Z,69.17
2023-01-11T03:54:21.472Z,68.78
2023-01-11T03:56:41.352Z,68.31
2023-01-11T03:58:44.182Z,68.86
2023-01-11T04:00:46.379Z,68.84
2023-01-11T04:02:49.811Z,69.07
2023-01-11T04:04:52.099Z,68.67
2023-01-11T04:06:54.412Z,69.44
2023-01-11T04:08:56.231Z,69.36
2023-01-11T04:10:58.241Z,69.23
2023-01-11T04:12:59.982Z,68.70
2023-01-11T04:15:03.376Z,68.36
2023-01-11T04:17:05.628Z,68.75
2023-01-11T04:19:07.478Z,68.76
2023-01-11T04:21:09.305Z,68.50
2023-01-11T04:23:11.239Z,68.81
2023-01-11T04:25:13.058Z,68.31
2023-01-11T04:27:15.136Z,68.52
2023-01-11T04:29:16.955Z,68.06
2023-01-11T04:31:18.803Z,68.41
2023-01-11T04:33:20.632Z,68.74
2023-01-11T04:35:22.574Z,68.12
2023-01-11T04:37:24.438Z,68.31
2023-01-11T04:39:26.273Z,68.16
2023-01-11T04:41:37.524Z,67.77
2023-01-11T04:43:39.372Z,68.05
2023-01-11T04:45:41.208Z,68.56
2023-01-11T04:47:43.172Z,69.01
2023-01-11T04:49:45.621Z,68.58
2023-01-11T04:51:47.398Z,68.44
2023-01-11T04:53:49.664Z,68.61
2023-01-11T04:55:53.655Z,68.72
2023-01-11T04:57:55.565Z,68.85
2023-01-11T04:59:57.410Z,68.17
2023-01-11T05:01:59.236Z,68.47
2023-01-11T05:04:01.132Z,68.72
2023-01-11T05:06:03.582Z,68.91
2023-01-11T05:08:05.492Z,69.33
2023-01-11T05:10:07.889Z,68.77
2023-01-11T05:12:09.729Z,68.88
2023-01-11T05:14:11.849Z,69.65
2023-01-11T05:16:25.524Z,69.66
2023-01-11T05:18:27.410Z,69.44
2023-01-11T05:20:29.237Z,69.62
2023-01-11T05:22:31.008Z,69.98
2023-01-11T05:24:32.847Z,69.26
2023-01-11T05:26:37.267Z,69.88
2023-01-11T05:28:39.407Z,69.13
2023-01-11T05:30:41.187Z,68.75
2023-01-11T05:32:43.033Z,68.86
2023-01-11T05:34:44.838Z,69.39
2023-01-11T05:36:46.982Z,69.00
2023-01-11T05:38:50.757Z,69.75
2023-01-11T05:40:58.146Z,68.64
2023-01-11T05:42:59.977Z,68.93
2023-01-11T05:45:11.416Z,68.92
2023-01-11T05:47:13.223Z,67.96
2023-01-11T05:49:15.446Z,68.62
2023-01-11T05:51:17.567Z,68.53
2023-01-11T05:53:20.144Z,68.58
2023-01-11T05:55:22.055Z,68.67
2023-01-11T05:57:24.037Z,68.51
2023-01-11T05:59:27.054Z,68.24
2023-01-11T06:01:28.861Z,68.35
2023-01-11T06:03:30.662Z,68.64
2023-01-11T06:05:34.690Z,68.52
2023-01-11T06:07:36.500Z,68.71
2023-01-11T06:09:38.399Z,68.10
2023-01-11T06:11:40.511Z,68.10
2023-01-11T06:13:42.790Z,68.08
2023-01-11T06:15:44.642Z,67.96
2023-01-11T06:17:46.444Z,68.05
2023-01-11T06:19:48.613Z,67.61
2023-01-11T06:21:50.664Z,68.03
2023-01-11T06:23:53.674Z,67.88
2023-01-11T06:25:56.420Z,68.55
2023-01-11T06:28:00.017Z,68.39
2023-01-11T06:30:02.778Z,69.29
2023-01-11T06:32:07.824Z,69.09
2023-01-11T06:34:10.252Z,69.42
2023-01-11T06:36:13.704Z,69.50
2023-01-11T06:38:17.527Z,68.86
2023-01-11T06:40:19.671Z,68.91
2023-01-11T06:42:23.372Z,69.72
2023-01-11T06:44:26.139Z,69.09
2023-01-11T06:46:29.184Z,69.17
2023-01-11T06:48:31.880Z,68.97
2023-01-11T06:50:33.871Z,68.69
2023-01-11T06:52:35.856Z,68.73
2023-01-11T06:54:37.845Z,68.59
2023-01-11T06:56:39.828Z,67.72
2023-01-11T06:58:42.210Z,67.94
2023-01-11T07:00:44.303Z,67.97
2023-01-11T07:02:47.534Z,68.32
2023-01-11T07:04:49.531Z,68.11
2023-01-11T07:06:54.896Z,68.69
2023-01-11T07:08:56.968Z,68.26
2023-01-11T07:10:59.156Z,67.55
2023-01-11T07:13:01.286Z,67.90
2023-01-11T07:15:07.542Z,67.68
2023-01-11T07:17:09.826Z,68.08
2023-01-11T07:19:12.079Z,68.56
2023-01-11T07:21:14.107Z,68.08
2023-01-11T07:23:16.116Z,68.05
2023-01-11T07:25:26.239Z,67.51
2023-01-11T07:27:28.088Z,67.07
2023-01-11T07:29:32.645Z,67.57
2023-01-11T07:31:52.192Z,67.43
2023-01-11T07:33:55.317Z,67.36
2023-01-11T07:35:58.838Z,67.20
2023-01-11T07:38:14.687Z,67.84
2023-01-11T07:40:23.567Z,67.54
2023-01-11T07:42:36.024Z,67.37
2023-01-11T07:44:37.875Z,67.51
2023-01-11T07:46:39.619Z,67.61
2023-01-11T07:48:42.453Z,67.99
2023-01-11T07:50:45.257Z,67.86
2023-01-11T07:52:58.395Z,67.92
2023-01-11T07:55:02.864Z,68.01
2023-01-11T07:57:18.026Z,67.86
2023-01-11T07:59:22.928Z,68.42
2023-01-11T08:01:26.843Z,69.08
2023-01-11T08:03:32.140Z,68.43
2023-01-11T08:06:01.491Z,68.78
2023-01-11T08:08:09.506Z,68.53
2023-01-11T08:10:12.266Z,68.77
2023-01-11T08:12:38.942Z,68.48
2023-01-11T08:14:43.401Z,68.18
2023-01-11T08:16:48.607Z,68.18
2023-01-11T08:18:56.718Z,68.32
2023-01-11T08:21:06.430Z,68.05
2023-01-11T08:23:16.158Z,68.10
2023-01-11T08:25:18.108Z,68.10
2023-01-11T08:27:20.553Z,67.40
2023-01-11T08:29:26.849Z,67.43
2023-01-11T08:31:34.542Z,67.56
2023-01-11T08:33:36.319Z,68.19
2023-01-11T08:35:47.068Z,67.02
2023-01-11T08:38:03.630Z,67.04
2023-01-11T08:40:37.502Z,66.91
2023-01-11T08:42:55.939Z,67.07
2023-01-11T08:44:58.978Z,66.91
2023-01-11T08:47:01.594Z,66.78
2023-01-11T08:49:05.725Z,67.07
2023-01-11T08:51:07.818Z,67.29
2023-01-11T08:53:10.951Z,67.51
2023-01-11T08:55:14.176Z,67.38
2023-01-11T08:57:27.713Z,67.70
2023-01-11T08:59:31.340Z,67.31
2023-01-11T09:01:48.802Z,67.11
2023-01-11T09:03:54.820Z,67.47
2023-01-11T09:05:57.084Z,68.08
2023-01-11T09:07:59.896Z,67.55
2023-01-11T09:10:04.428Z,68.23
2023-01-11T09:12:06.566Z,68.31
2023-01-11T09:14:08.407Z,68.06
2023-01-11T09:16:10.178Z,68.15
2023-01-11T09:18:18.440Z,67.75
2023-01-11T09:20:22.449Z,68.35
2023-01-11T09:22:26.256Z,68.04
2023-01-11T09:24:29.167Z,68.33
2023-01-11T09:26:34.554Z,68.24
2023-01-11T09:28:43.315Z,68.95
2023-01-11T09:30:44.962Z,68.60
2023-01-11T09:33:03.583Z,68.64
2023-01-11T09:35:06.364Z,68.09
2023-01-11T09:37:16.275Z,68.11
2023-01-11T09:39:24.614Z,68.95
2023-01-11T09:41:36.536Z,68.47
2023-01-11T09:44:04.721Z,68.63
2023-01-11T09:46:29.514Z,67.74
2023-01-11T09:48:43.499Z,68.27
2023-01-11T09:50:48.711Z,68.21
2023-01-11T09:53:09.910Z,68.15
2023-01-11T09:55:25.243Z,68.23
2023-01-11T09:57:50.303Z,68.34
2023-01-11T10:00:20.251Z,68.17
2023-01-11T10:02:50.005Z,67.50
2023-01-11T10:05:33.914Z,67.44
2023-01-11T10:18:34.253Z,66.18
2023-01-11T10:21:45.185Z,65.61
2023-01-11T10:24:13.155Z,66.08
2023-01-11T10:26:32.470Z,65.01
2023-01-11T10:29:37.309Z,65.60
2023-01-11T10:31:56.640Z,64.90
2023-01-11T10:34:23.264Z,64.30
2023-01-11T10:37:13.630Z,64.25
2023-01-11T10:39:47.907Z,63.51
2023-01-11T10:42:24.218Z,63.12
2023-01-11T10:44:57.418Z,62.30
2023-01-11T10:47:06.899Z,62.59
2023-01-11T10:51:49.425Z,61.20
2023-01-11T10:53:57.419Z,61.38
2023-01-11T10:56:16.357Z,61.32
2023-01-11T10:58:46.272Z,60.58
2023-01-11T11:01:46.006Z,60.01
2023-01-11T11:06:50.561Z,59.27
2023-01-11T11:11:36.050Z,58.87
2023-01-11T11:14:14.602Z,58.89
2023-01-11T11:16:30.102Z,58.88
2023-01-11T11:18:32.409Z,58.23
2023-01-11T11:20:35.451Z,58.24
2023-01-11T11:22:37.484Z,57.49
2023-01-11T11:24:48.248Z,57.41
2023-01-11T11:27:00.287Z,58.07
2023-01-11T11:29:06.873Z,57.61
2023-01-11T11:31:09.930Z,57.39
2023-01-11T11:33:23.458Z,56.89
2023-01-11T11:35:38.789Z,56.37
2023-01-11T11:37:44.627Z,56.23
2023-01-11T11:39:49.373Z,56.55
2023-01-11T11:41:54.138Z,56.32
2023-01-11T11:44:15.373Z,56.63
2023-01-11T11:46:23.412Z,56.61
2023-01-11T11:48:27.715Z,55.44
2023-01-11T11:50:44.846Z,55.85
2023-01-11T11:52:52.365Z,54.87
2023-01-11T11:54:58.383Z,55.09
2023-01-11T11:57:14.918Z,55.78
2023-01-11T11:59:21.206Z,55.41
2023-01-11T12:01:35.101Z,55.30
2023-01-11T12:03:37.344Z,54.67
2023-01-11T12:05:57.774Z,54.61
2023-01-11T12:08:02.926Z,54.58
2023-01-11T12:10:12.312Z,54.93
2023-01-11T12:12:17.603Z,54.65
2023-01-11T12:14:25.986Z,54.63
2023-01-11T12:16:34.970Z,54.77
2023-01-11T12:18:41.614Z,54.56
2023-01-11T12:20:45.372Z,54.62
2023-01-11T12:22:48.675Z,54.04
2023-01-11T12:25:09.609Z,54.00
2023-01-11T12:27:32.798Z,53.47
2023-01-11T12:29:46.854Z,54.50
2023-01-11T12:32:03.531Z,54.34
2023-01-11T12:34:18.033Z,54.24
2023-01-11T12:36:29.924Z,53.11
2023-01-11T12:38:54.053Z,53.42
2023-01-11T12:41:02.054Z,53.66
2023-01-11T12:43:14.630Z,53.85
2023-01-11T12:45:31.331Z,53.50
2023-01-11T12:47:52.814Z,53.41
2023-01-11T12:50:13.695Z,54.39
2023-01-11T12:52:27.699Z,53.99
2023-01-11T12:54:54.057Z,53.98
2023-01-11T12:57:15.724Z,55.11
2023-01-11T12:59:30.414Z,55.65
2023-01-11T13:01:49.694Z,55.57
2023-01-11T13:03:55.515Z,55.24
2023-01-11T13:06:10.708Z,55.83
2023-01-11T13:08:17.075Z,55.78
2023-01-11T13:10:36.959Z,56.12
2023-01-11T13:12:56.579Z,55.86
2023-01-11T13:15:07.112Z,56.13
2023-01-11T13:17:29.072Z,56.26
2023-01-11T13:19:46.438Z,56.06
2023-01-11T13:21:53.637Z,56.50
2023-01-11T13:24:02.597Z,56.39
2023-01-11T13:26:23.613Z,56.71
2023-01-11T13:28:33.859Z,56.49
2023-01-11T13:30:36.412Z,56.95
2023-01-11T13:32:41.677Z,56.24
2023-01-11T13:34:51.765Z,56.26
2023-01-11T13:37:06.608Z,56.52
2023-01-11T13:39:28.809Z,55.97
2023-01-11T13:41:38.394Z,56.34
2023-01-11T13:43:46.148Z,55.79
2023-01-11T13:45:55.948Z,55.37
2023-01-11T13:48:06.302Z,54.96
2023-01-11T13:50:12.798Z,54.60
2023-01-11T13:52:17.938Z,54.35
2023-01-11T13:54:33.617Z,54.87
2023-01-11T13:56:42.255Z,55.02
2023-01-11T13:58:56.362Z,54.47
2023-01-11T14:01:11.603Z,54.55
2023-01-11T14:03:29.375Z,54.15
2023-01-11T14:05:45.227Z,54.37
2023-01-11T14:08:02.051Z,54.18
2023-01-11T14:10:21.596Z,53.91
2023-01-11T14:12:43.246Z,53.84
2023-01-11T14:15:04.763Z,53.70
2023-01-11T14:17:16.669Z,53.94
2023-01-11T14:19:34.077Z,54.13
2023-01-11T14:21:57.723Z,54.77
2023-01-11T14:24:02.178Z,54.80
2023-01-11T14:26:07.594Z,54.42
2023-01-11T14:28:28.388Z,55.07
2023-01-11T14:30:38.797Z,54.98
2023-01-11T14:32:49.950Z,55.25
2023-01-11T14:35:04.541Z,54.21
2023-01-11T14:37:14.255Z,54.84
2023-01-11T14:39:25.577Z,55.37
2023-01-11T14:41:37.906Z,54.74
2023-01-11T14:43:49.612Z,55.31
2023-01-11T14:46:11.388Z,54.76
2023-01-11T14:48:27.399Z,55.00
2023-01-11T14:50:45.182Z,56.11
2023-01-11T14:52:51.393Z,56.80
2023-01-11T14:54:55.454Z,57.32
2023-01-11T14:56:59.270Z,57.52
2023-01-11T14:59:05.471Z,58.45
2023-01-11T15:01:11.320Z,59.05
2023-01-11T15:03:18.313Z,59.23
2023-01-11T15:05:29.914Z,58.90
2023-01-11T15:07:32.240Z,60.24
2023-01-11T15:09:45.437Z,60.04
2023-01-11T15:11:47.475Z,60.34
2023-01-11T15:13:57.590Z,60.46
2023-01-11T15:16:28.353Z,60.78
2023-01-11T15:18:30.694Z,61.15
2023-01-11T15:20:34.187Z,62.39
2023-01-11T15:22:36.703Z,64.09
2023-01-11T15:24:44.110Z,64.37
2023-01-11T15:26:49.738Z,64.80
2023-01-11T15:28:58.217Z,65.52
2023-01-11T15:31:04.452Z,66.16
2023-01-11T15:33:19.107Z,68.12
2023-01-11T15:35:31.890Z,68.24
2023-01-11T15:37:37.915Z,68.02
2023-01-11T15:39:49.528Z,69.79
2023-01-11T15:42:17.910Z,70.97
2023-01-11T15:44:33.299Z,71.08
2023-01-11T15:46:55.427Z,71.79
2023-01-11T15:49:14.500Z,72.01
2023-01-11T15:51:35.498Z,72.40
2023-01-11T15:53:41.378Z,71.59
2023-01-11T15:55:52.233Z,72.32
2023-01-11T15:58:03.255Z,73.00
2023-01-11T16:00:14.562Z,72.99
2023-01-11T16:02:17.966Z,73.81
2023-01-11T16:04:27.403Z,74.67
2023-01-11T16:06:36.752Z,74.75
2023-01-11T16:08:53.557Z,73.80
2023-01-11T16:11:08.142Z,74.18
2023-01-11T16:13:20.073Z,72.96
2023-01-11T16:15:28.419Z,72.11
2023-01-11T16:17:30.896Z,72.84
2023-01-11T16:19:36.059Z,72.38
2023-01-11T16:21:41.106Z,71.14
2023-01-11T16:23:43.328Z,71.55
2023-01-11T16:25:46.718Z,71.82
2023-01-11T16:27:54.219Z,71.44
2023-01-11T16:29:56.723Z,71.73
2023-01-11T16:32:01.652Z,72.06
2023-01-11T16:34:07.684Z,71.64
2023-01-11T16:36:13.987Z,72.03
2023-01-11T16:38:21.890Z,72.34
2023-01-11T16:40:30.774Z,71.49
2023-01-11T16:42:39.393Z,71.44
2023-01-11T16:44:54.080Z,71.74
2023-01-11T16:47:07.684Z,70.54
2023-01-11T16:49:10.564Z,70.69
2023-01-11T16:51:16.685Z,70.81
2023-01-11T16:53:20.277Z,70.53
2023-01-11T16:55:30.180Z,71.44
2023-01-11T16:57:40.694Z,71.07
2023-01-11T16:59:42.775Z,70.26
2023-01-11T17:01:53.355Z,70.03
2023-01-11T17:03:55.443Z,69.55
2023-01-11T17:05:58.933Z,70.41
2023-01-11T17:08:01.063Z,69.41
2023-01-11T17:10:15.886Z,69.21
2023-01-11T17:12:24.484Z,70.16
2023-01-11T17:14:43.043Z,70.35
2023-01-11T17:16:50.937Z,70.57
2023-01-11T17:18:54.793Z,70.55
2023-01-11T17:20:56.939Z,69.81
2023-01-11T17:22:59.795Z,70.07
2023-01-11T17:25:05.677Z,70.66
2023-01-11T17:27:16.293Z,70.32
2023-01-11T17:29:37.494Z,69.54
2023-01-11T17:31:40.467Z,69.85
2023-01-11T17:33:42.931Z,69.74
2023-01-11T17:35:45.622Z,70.43
2023-01-11T17:37:51.776Z,70.40
2023-01-11T17:39:54.174Z,69.90
2023-01-11T17:42:08.594Z,69.96
2023-01-11T17:44:35.466Z,70.50
2023-01-11T17:46:40.309Z,70.41
2023-01-11T17:48:55.127Z,70.65
2023-01-11T17:50:59.695Z,70.31
2023-01-11T17:53:06.212Z,70.46
2023-01-11T17:55:19.369Z,71.28
2023-01-11T17:57:21.464Z,71.23
2023-01-11T17:59:26.693Z,71.25
2023-01-11T18:01:28.942Z,70.33
2023-01-11T18:03:39.183Z,70.21
2023-01-11T18:05:42.757Z,70.82
2023-01-11T18:07:51.114Z,70.52
2023-01-11T18:10:01.548Z,70.00
2023-01-11T18:12:12.158Z,70.01
2023-01-11T18:14:25.557Z,69.72
2023-01-11T18:16:28.152Z,70.09
2023-01-11T18:18:42.280Z,69.16
2023-01-11T18:20:44.731Z,68.72
2023-01-11T18:23:04.588Z,68.88
2023-01-11T18:25:19.557Z,68.30
2023-01-11T18:27:26.247Z,68.13
2023-01-11T18:29:37.871Z,68.40
2023-01-11T18:31:39.934Z,68.52
2023-01-11T18:33:42.024Z,68.26
2023-01-11T18:35:45.595Z,67.83
2023-01-11T18:37:47.563Z,67.98
2023-01-11T18:39:51.260Z,67.66
2023-01-11T18:42:04.493Z,67.86
2023-01-11T18:44:07.738Z,67.97
2023-01-11T18:46:09.809Z,68.04
2023-01-11T18:48:13.339Z,68.20
2023-01-11T18:50:16.957Z,68.12
2023-01-11T18:52:22.044Z,67.99
2023-01-11T18:54:24.117Z,68.09
2023-01-11T18:56:26.120Z,67.71
2023-01-11T18:58:28.157Z,67.58
2023-01-11T19:00:30.132Z,67.74
2023-01-11T19:02:42.535Z,68.08
2023-01-11T19:06:48.114Z,67.17
2023-01-11T19:08:50.121Z,67.23
2023-01-11T19:10:52.670Z,67.69
2023-01-11T19:12:54.613Z,67.64
2023-01-11T19:14:56.654Z,67.40
2023-01-11T19:16:58.692Z,67.19
2023-01-11T19:19:00.738Z,67.71
2023-01-11T19:21:06.693Z,67.96
2023-01-11T19:23:09.209Z,68.01
2023-01-11T19:25:12.358Z,67.57
2023-01-11T19:27:14.491Z,68.44
2023-01-11T19:29:18.929Z,68.15
2023-01-11T19:31:20.988Z,67.72
2023-01-11T19:33:24.211Z,67.37
2023-01-11T19:35:26.152Z,68.05
2023-01-11T19:37:30.204Z,67.88
2023-01-11T19:39:32.099Z,68.18
2023-01-11T19:41:54.260Z,67.48
2023-01-11T19:43:56.152Z,68.59
2023-01-11T19:45:58.778Z,67.98
2023-01-11T19:48:00.855Z,67.71
2023-01-11T19:50:02.927Z,68.24
2023-01-11T19:52:12.398Z,67.93
2023-01-11T19:54:16.178Z,68.21
2023-01-11T19:56:18.068Z,67.94
2023-01-11T19:58:19.928Z,68.01
2023-01-11T20:00:21.984Z,67.99
2023-01-11T20:02:24.645Z,67.87
2023-01-11T20:04:27.043Z,68.46
2023-01-11T20:06:29.055Z,67.97
2023-01-11T20:08:30.868Z,67.64
2023-01-11T20:10:33.012Z,68.64
2023-01-11T20:12:35.652Z,68.19
2023-01-11T20:14:39.753Z,68.37
2023-01-11T20:16:41.898Z,68.27
2023-01-11T20:18:44.243Z,68.27
2023-01-11T20:20:55.743Z,68.58
2023-01-11T20:22:57.618Z,68.57
2023-01-11T20:25:00.630Z,67.80
2023-01-11T20:27:03.582Z,68.58
2023-01-11T20:29:06.647Z,68.91
2023-01-11T20:31:08.492Z,68.68
2023-01-11T20:33:10.454Z,69.18
2023-01-11T20:35:12.607Z,68.59
2023-01-11T20:37:15.288Z,69.04
2023-01-11T20:39:17.649Z,68.79
2023-01-11T20:41:32.362Z,68.36
2023-01-11T20:43:37.237Z,69.57
2023-01-11T20:45:39.880Z,69.46
2023-01-11T20:47:41.878Z,69.05
2023-01-11T20:49:43.827Z,69.28
2023-01-11T20:51:46.912Z,68.86
2023-01-11T20:53:48.732Z,68.79
2023-01-11T20:55:50.592Z,68.90
2023-01-11T20:57:52.687Z,69.55
2023-01-11T20:59:54.675Z,69.92
2023-01-11T21:01:56.534Z,70.35
2023-01-11T21:04:02.182Z,69.73
2023-01-11T21:06:06.349Z,70.52
2023-01-11T21:08:08.317Z,71.29
2023-01-11T21:10:11.272Z,71.21
2023-01-11T21:12:13.357Z,71.91
2023-01-11T21:14:15.206Z,72.58
2023-01-11T21:16:17.419Z,72.14
2023-01-11T21:18:19.405Z,72.86
2023-01-11T21:20:21.346Z,72.26
2023-01-11T21:22:23.279Z,73.01
2023-01-11T21:24:25.267Z,72.91
2023-01-11T21:26:29.501Z,72.63
2023-01-11T21:30:33.762Z,73.30
2023-01-11T21:32:35.727Z,72.89
2023-01-11T21:34:37.687Z,72.40
2023-01-11T21:36:40.546Z,73.12
2023-01-11T21:38:42.983Z,72.84
2023-01-11T21:40:44.827Z,72.54
2023-01-11T21:42:46.791Z,72.71
2023-01-11T21:44:48.831Z,72.13
2023-01-11T21:46:50.989Z,72.96
2023-01-11T21:48:52.928Z,72.93
2023-01-11T21:50:54.916Z,72.96
2023-01-11T21:52:56.880Z,73.69
2023-01-11T21:54:58.743Z,73.34
2023-01-11T21:57:00.785Z,72.82
2023-01-11T21:59:03.073Z,73.26
2023-01-11T22:01:13.646Z,72.29
2023-01-11T22:03:15.793Z,72.84
2023-01-11T22:05:17.684Z,72.63
2023-01-11T22:07:19.623Z,72.61
2023-01-11T22:09:22.242Z,72.76
2023-01-11T22:11:24.029Z,72.80
2023-01-11T22:13:28.541Z,72.62
2023-01-11T22:15:30.461Z,72.71
2023-01-11T22:17:32.447Z,72.65
2023-01-11T22:19:34.280Z,72.18
2023-01-11T22:21:37.795Z,71.88
2023-01-11T22:23:40.680Z,71.39
2023-01-11T22:25:42.676Z,71.40
2023-01-11T22:27:44.497Z,71.41
2023-01-11T22:29:48.157Z,70.76
2023-01-11T22:31:54.912Z,70.70
2023-01-11T22:33:57.954Z,70.51
2023-01-11T22:35:59.747Z,70.81
2023-01-11T22:38:01.628Z,69.93
2023-01-11T22:40:03.467Z,69.88
2023-01-11T22:42:05.542Z,69.92
2023-01-11T22:44:08.539Z,70.37
2023-01-11T22:46:16.617Z,70.06
2023-01-11T22:48:18.545Z,69.76
2023-01-11T22:50:20.813Z,69.70
2023-01-11T22:52:22.682Z,69.69
2023-01-11T22:54:24.600Z,69.59
2023-01-11T22:56:29.534Z,69.86
2023-01-11T22:58:31.427Z,69.27
2023-01-11T23:00:33.384Z,69.05
2023-01-11T23:02:35.208Z,69.63
2023-01-11T23:04:37.110Z,69.80
2023-01-11T23:06:40.878Z,69.27
2023-01-11T23:08:43.636Z,69.68
2023-01-11T23:10:45.438Z,69.38
2023-01-11T23:12:57.249Z,69.77
2023-01-11T23:14:59.105Z,69.65
2023-01-11T23:17:06.053Z,69.54
2023-01-11T23:19:09.194Z,69.17
2023-01-11T23:21:11.086Z,69.41
2023-01-11T23:23:12.959Z,69.44
2023-01-11T23:25:15.022Z,69.54
2023-01-11T23:27:16.815Z,70.74
2023-01-11T23:29:18.638Z,71.03
2023-01-11T23:31:22.739Z,70.74
2023-01-11T23:33:24.793Z,71.61
2023-01-11T23:35:26.625Z,71.23
2023-01-11T23:37:28.478Z,72.54
2023-01-11T23:39:30.772Z,72.09
2023-01-11T23:41:42.319Z,72.96
2023-01-11T23:43:44.083Z,73.50
2023-01-11T23:45:45.939Z,73.25
2023-01-11T23:47:49.509Z,73.40
2023-01-11T23:49:53.697Z,74.18
2023-01-11T23:51:56.411Z,73.54
2023-01-11T23:53:58.462Z,74.23
2023-01-11T23:56:00.283Z,74.27
2023-01-11T23:58:09.102Z,74.65
